Time;durP1;ratioP1;P1;durP2;ratioP2;P2;SDS_P1;SDS_P2;PMS_P1;PMS_P2;Temp;Humidity;BMP_temperature;BMP_pressure;BME280_temperature;BME280_humidity;BME280_pressure;Samples;Min_cycle;Max_cycle;Signal;HPM_P1;HPM_P2
2023/08/30 00:01:16;;;;;;;0.83;0.83;;;15.30;99.90;;;;;;4960679;29;20525;-85
2023/08/30 00:03:43;;;;;;;0.70;0.70;;;15.20;99.90;;;;;;4905820;29;1101805;-83
2023/08/30 00:06:11;;;;;;;0.60;0.60;;;15.30;99.90;;;;;;4957089;28;20211;-81
2023/08/30 00:08:38;;;;;;;0.40;0.40;;;15.10;99.90;;;;;;4946672;29;20484;-82
2023/08/30 00:11:05;;;;;;;0.40;0.40;;;15.00;99.90;;;;;;4946917;28;20706;-83
2023/08/30 00:13:35;;;;;;;1.63;1.53;;;15.00;99.90;;;;;;4946628;29;20444;-84
2023/08/30 00:16:06;;;;;;;0.40;0.40;;;15.00;99.90;;;;;;4963523;28;20612;-83
2023/08/30 00:18:34;;;;;;;0.40;0.40;;;14.90;99.90;;;;;;4956134;29;20438;-84
2023/08/30 00:21:02;;;;;;;0.60;0.60;;;15.00;99.90;;;;;;4970712;28;20456;-85
2023/08/30 00:23:29;;;;;;;0.40;0.40;;;15.00;99.90;;;;;;4947100;28;20644;-85
2023/08/30 00:25:56;;;;;;;0.40;0.40;;;15.10;99.90;;;;;;4959905;28;20472;-83
2023/08/30 00:28:23;;;;;;;0.40;0.40;;;15.00;99.90;;;;;;4940198;29;20881;-81
2023/08/30 00:30:55;;;;;;;1.13;0.87;;;15.10;99.90;;;;;;4952444;29;20512;-82
2023/08/30 00:33:21;;;;;;;0.40;0.40;;;15.00;99.90;;;;;;4943335;29;20445;-83
2023/08/30 00:35:58;;;;;;;0.73;0.73;;;15.00;99.90;;;;;;4970709;29;20445;-82
2023/08/30 00:38:27;;;;;;;0.80;0.80;;;14.90;99.90;;;;;;4961749;28;20444;-82
2023/08/30 00:40:54;;;;;;;1.77;1.40;;;15.00;99.90;;;;;;4973280;28;20437;-86
2023/08/30 00:43:22;;;;;;;0.70;0.70;;;14.90;99.90;;;;;;4949233;29;20501;-81
2023/08/30 00:45:50;;;;;;;1.27;1.17;;;14.90;99.90;;;;;;4951876;28;20443;-81
2023/08/30 00:48:19;;;;;;;5.00;1.27;;;14.90;99.90;;;;;;4969648;29;20485;-84
2023/08/30 00:50:46;;;;;;;0.80;0.80;;;14.80;99.90;;;;;;4967089;29;20441;-84
2023/08/30 00:53:14;;;;;;;0.40;0.30;;;14.90;99.90;;;;;;4963566;29;20442;-84
2023/08/30 00:55:42;;;;;;;0.40;0.30;;;14.80;99.90;;;;;;4968499;29;20449;-84
2023/08/30 00:58:10;;;;;;;0.40;0.40;;;14.80;99.90;;;;;;4978889;28;20437;-83
2023/08/30 01:00:39;;;;;;;0.60;0.60;;;14.80;99.90;;;;;;4974113;28;20433;-82
2023/08/30 01:03:09;;;;;;;25.23;2.73;;;14.90;99.90;;;;;;4960414;28;20477;-81
2023/08/30 01:05:37;;;;;;;0.50;0.50;;;15.00;99.90;;;;;;4967135;28;20442;-82
2023/08/30 01:08:05;;;;;;;0.63;0.63;;;14.90;99.90;;;;;;4964032;28;20445;-81
2023/08/30 01:11:17;;;;;;;0.40;0.30;;;14.80;99.90;;;;;;4969674;28;20474;-83
2023/08/30 01:13:52;;;;;;;0.40;0.30;;;14.90;99.90;;;;;;4954902;28;20445;-87
2023/08/30 01:16:21;;;;;;;0.40;0.40;;;14.80;99.90;;;;;;4955733;28;20621;-81
2023/08/30 01:18:48;;;;;;;1.27;1.27;;;14.80;99.90;;;;;;4945821;29;20469;-83
2023/08/30 01:21:34;;;;;;;0.83;0.83;;;14.90;99.90;;;;;;4958605;28;20453;-84
2023/08/30 01:24:07;;;;;;;0.50;0.50;;;14.80;99.90;;;;;;4955369;28;20435;-83
2023/08/30 01:26:51;;;;;;;0.60;0.60;;;14.80;99.90;;;;;;4952418;28;20443;-82
2023/08/30 01:29:20;;;;;;;0.60;0.60;;;14.80;99.90;;;;;;4960472;28;20507;-82
2023/08/30 01:31:48;;;;;;;0.40;0.40;;;14.80;99.90;;;;;;4942388;29;20442;-82
2023/08/30 01:34:16;;;;;;;0.40;0.40;;;14.80;99.90;;;;;;4962404;28;20441;-83
2023/08/30 01:36:44;;;;;;;0.80;0.80;;;14.90;99.90;;;;;;4945155;29;20445;-80
2023/08/30 01:39:13;;;;;;;1.07;1.07;;;14.80;99.90;;;;;;4966686;29;20445;-84
2023/08/30 01:41:41;;;;;;;1.43;1.33;;;14.90;99.90;;;;;;4973245;28;20460;-84
2023/08/30 01:44:09;;;;;;;1.40;1.40;;;14.80;99.90;;;;;;4947434;29;20449;-82
2023/08/30 01:46:38;;;;;;;1.07;1.07;;;14.80;99.90;;;;;;4965184;28;20614;-82
2023/08/30 01:49:07;;;;;;;0.50;0.50;;;14.80;99.90;;;;;;4959688;28;20484;-80
2023/08/30 01:51:34;;;;;;;0.70;0.70;;;14.70;99.90;;;;;;4953234;28;20469;-83
2023/08/30 01:54:03;;;;;;;0.60;0.60;;;14.80;99.90;;;;;;4962145;29;20524;-83
2023/08/30 01:56:30;;;;;;;0.40;0.40;;;14.80;99.90;;;;;;4957357;29;20537;-84
2023/08/30 01:58:57;;;;;;;0.80;0.80;;;14.90;99.90;;;;;;4948158;29;20439;-86
2023/08/30 02:01:24;;;;;;;0.60;0.60;;;14.80;99.90;;;;;;4951600;29;20446;-85
2023/08/30 02:03:51;;;;;;;0.87;0.87;;;14.80;99.90;;;;;;4965980;29;20993;-88
2023/08/30 02:06:26;;;;;;;0.50;0.50;;;14.80;99.90;;;;;;4958337;29;20419;-84
2023/08/30 02:09:00;;;;;;;0.50;0.50;;;14.80;99.90;;;;;;4955612;28;20472;-84
2023/08/30 02:11:28;;;;;;;0.63;0.63;;;14.80;99.90;;;;;;4940323;28;20438;-87
2023/08/30 02:13:58;;;;;;;1.50;1.50;;;14.70;99.90;;;;;;4967005;28;20453;-85
2023/08/30 02:16:30;;;;;;;0.93;0.80;;;14.60;99.90;;;;;;4977264;28;20421;-86
2023/08/30 02:19:02;;;;;;;2.50;1.53;;;14.60;99.90;;;;;;4960697;28;20226;-86
2023/08/30 02:21:30;;;;;;;0.40;0.40;;;14.60;99.90;;;;;;4952377;28;20447;-84
2023/08/30 02:24:02;;;;;;;2.93;2.13;;;14.60;99.90;;;;;;4964159;29;20441;-85
2023/08/30 02:26:30;;;;;;;0.40;0.40;;;14.40;99.90;;;;;;4955640;29;20461;-84
2023/08/30 02:28:57;;;;;;;0.73;0.73;;;14.60;99.90;;;;;;4957756;29;20477;-84
2023/08/30 02:31:26;;;;;;;0.40;0.40;;;14.60;99.90;;;;;;4949344;29;20647;-86
2023/08/30 02:33:55;;;;;;;2.67;2.53;;;14.60;99.90;;;;;;4965855;28;20203;-88
2023/08/30 02:36:22;;;;;;;0.70;0.70;;;14.60;99.90;;;;;;4956941;29;20524;-85
2023/08/30 02:38:50;;;;;;;1.63;1.53;;;14.60;99.90;;;;;;4955597;29;20445;-86
2023/08/30 02:41:17;;;;;;;0.50;0.47;;;14.50;99.90;;;;;;4955003;29;20467;-86
2023/08/30 02:43:44;;;;;;;0.67;0.67;;;14.60;99.90;;;;;;4959533;28;20498;-85
2023/08/30 02:46:11;;;;;;;0.70;0.70;;;14.70;99.90;;;;;;4963114;28;20507;-87
2023/08/30 02:48:38;;;;;;;0.50;0.50;;;14.50;99.90;;;;;;4961114;29;20523;-86
2023/08/30 02:51:06;;;;;;;0.40;0.40;;;14.70;99.90;;;;;;4960486;29;20451;-83
2023/08/30 02:53:33;;;;;;;0.53;0.53;;;14.50;99.90;;;;;;4954925;29;20470;-85
2023/08/30 02:56:00;;;;;;;1.00;0.70;;;14.60;99.90;;;;;;4948143;29;20452;-83
2023/08/30 02:58:27;;;;;;;0.40;0.40;;;14.60;99.90;;;;;;4943934;28;20449;-82
2023/08/30 03:00:54;;;;;;;1.73;1.63;;;14.60;99.90;;;;;;4969189;28;20497;-84
2023/08/30 03:03:21;;;;;;;0.40;0.40;;;14.70;99.90;;;;;;4965623;29;20457;-84
2023/08/30 03:05:48;;;;;;;0.50;0.50;;;14.60;99.90;;;;;;4945925;29;20686;-83
2023/08/30 03:08:16;;;;;;;0.40;0.40;;;14.70;99.90;;;;;;4972912;29;20445;-85
2023/08/30 03:10:43;;;;;;;0.40;0.40;;;14.70;99.90;;;;;;4970496;29;20544;-85
2023/08/30 03:13:10;;;;;;;0.40;0.40;;;14.60;99.90;;;;;;4969976;28;20480;-83
2023/08/30 03:15:37;;;;;;;0.40;0.40;;;14.60;99.90;;;;;;4971859;28;20796;-83
2023/08/30 03:18:04;;;;;;;1.90;0.87;;;14.60;99.90;;;;;;4966466;29;20469;-86
2023/08/30 03:20:31;;;;;;;0.40;0.30;;;14.60;99.90;;;;;;4974206;28;20491;-84
2023/08/30 03:22:58;;;;;;;1.63;1.53;;;14.60;99.90;;;;;;4949194;28;20511;-85
2023/08/30 03:25:29;;;;;;;1.10;0.87;;;14.50;99.90;;;;;;4940661;29;20766;-81
2023/08/30 03:27:58;;;;;;;0.60;0.60;;;14.50;99.90;;;;;;4965213;28;20461;-86
2023/08/30 03:30:30;;;;;;;0.60;0.60;;;14.40;99.90;;;;;;4952396;29;20705;-85
2023/08/30 03:32:57;;;;;;;3.63;3.33;;;14.60;99.90;;;;;;4943997;29;20637;-82
2023/08/30 03:35:24;;;;;;;0.80;0.80;;;14.60;99.90;;;;;;4965875;28;20445;-80
2023/08/30 03:37:51;;;;;;;0.70;0.70;;;14.60;99.90;;;;;;4963680;29;20500;-82
2023/08/30 03:40:18;;;;;;;0.70;0.70;;;14.50;99.90;;;;;;4952231;29;20446;-84
2023/08/30 03:42:44;;;;;;;0.70;0.70;;;14.40;99.90;;;;;;4955061;29;20637;-83
2023/08/30 03:45:11;;;;;;;0.97;0.97;;;14.50;99.90;;;;;;4964328;28;20506;-83
2023/08/30 03:47:38;;;;;;;0.80;0.80;;;14.40;99.90;;;;;;4959179;29;20472;-82
2023/08/30 03:50:07;;;;;;;1.38;1.33;;;14.60;99.90;;;;;;4946485;29;20820;-83
2023/08/30 03:52:34;;;;;;;1.93;1.83;;;14.60;99.90;;;;;;4939314;29;20215;-84
2023/08/30 03:55:02;;;;;;;1.43;1.40;;;14.70;99.90;;;;;;4970144;28;20630;-82
2023/08/30 03:57:29;;;;;;;0.90;0.87;;;14.60;99.90;;;;;;4963510;28;20461;-83
2023/08/30 03:59:56;;;;;;;1.83;1.73;;;14.70;99.90;;;;;;4964068;28;20427;-82
2023/08/30 04:02:23;;;;;;;1.07;1.03;;;14.80;99.90;;;;;;4964456;29;20516;-84
2023/08/30 04:04:50;;;;;;;1.63;1.52;;;14.50;99.90;;;;;;4965413;28;20453;-82
2023/08/30 04:07:17;;;;;;;0.40;0.40;;;14.70;99.90;;;;;;4965036;29;20214;-82
2023/08/30 04:09:47;;;;;;;0.40;0.40;;;14.70;99.90;;;;;;4965620;28;20480;-85
2023/08/30 04:12:14;;;;;;;1.23;1.23;;;14.60;99.90;;;;;;4963862;29;20449;-84
2023/08/30 04:14:41;;;;;;;0.50;0.50;;;14.60;99.90;;;;;;4938615;29;20446;-84
2023/08/30 04:17:08;;;;;;;0.45;0.45;;;14.70;99.90;;;;;;4965157;28;20473;-84
2023/08/30 04:19:38;;;;;;;1.10;1.10;;;14.80;99.90;;;;;;4967003;28;20203;-84
2023/08/30 04:22:05;;;;;;;0.70;0.70;;;14.60;99.90;;;;;;4974855;28;20504;-84
2023/08/30 04:24:32;;;;;;;0.73;0.73;;;14.60;99.90;;;;;;4957904;28;20520;-85
2023/08/30 04:26:59;;;;;;;0.40;0.40;;;14.70;99.90;;;;;;4971836;28;20469;-85
2023/08/30 04:29:26;;;;;;;0.50;0.50;;;14.70;99.90;;;;;;4971995;28;20485;-84
2023/08/30 04:31:54;;;;;;;0.30;0.30;;;14.60;99.90;;;;;;4949745;29;20441;-84
2023/08/30 04:34:22;;;;;;;0.80;0.80;;;14.80;99.90;;;;;;4963807;29;20637;-83
2023/08/30 04:36:49;;;;;;;0.40;0.40;;;14.80;99.90;;;;;;4946156;29;20708;-82
2023/08/30 04:39:17;;;;;;;0.40;0.40;;;14.90;99.90;;;;;;4972149;28;20347;-82
2023/08/30 04:41:44;;;;;;;0.50;0.50;;;14.70;99.90;;;;;;4957420;28;20490;-82
2023/08/30 04:44:14;;;;;;;1.00;1.00;;;14.70;99.90;;;;;;4977913;28;20210;-85
2023/08/30 04:46:41;;;;;;;1.47;1.33;;;14.80;99.90;;;;;;4970952;28;20454;-84
2023/08/30 04:49:08;;;;;;;1.03;1.03;;;14.80;99.90;;;;;;4963043;29;20423;-83
2023/08/30 04:51:35;;;;;;;0.57;0.57;;;14.70;99.90;;;;;;4947617;29;20441;-84
2023/08/30 04:54:02;;;;;;;0.40;0.30;;;14.70;99.90;;;;;;4968784;28;20449;-83
2023/08/30 04:56:29;;;;;;;0.43;0.43;;;14.80;99.90;;;;;;4956811;28;20485;-84
2023/08/30 04:58:57;;;;;;;0.40;0.40;;;14.90;99.90;;;;;;4967239;28;20441;-85
2023/08/30 05:01:24;;;;;;;0.40;0.40;;;14.90;99.90;;;;;;4972001;28;20438;-84
2023/08/30 05:03:51;;;;;;;0.50;0.50;;;14.80;99.90;;;;;;4973541;28;20441;-84
2023/08/30 05:06:21;;;;;;;0.40;0.40;;;14.80;99.90;;;;;;4954784;28;20450;-86
2023/08/30 05:08:48;;;;;;;1.20;1.20;;;14.90;99.90;;;;;;4959844;28;20780;-85
2023/08/30 05:11:15;;;;;;;0.70;0.70;;;14.90;99.90;;;;;;4960121;28;20516;-84
2023/08/30 05:13:45;;;;;;;0.70;0.70;;;15.00;99.90;;;;;;4963224;28;20445;-85
2023/08/30 05:16:13;;;;;;;0.87;0.87;;;15.00;99.90;;;;;;4954389;28;20869;-85
2023/08/30 05:18:41;;;;;;;2.03;1.90;;;15.00;99.90;;;;;;4970148;28;20635;-83
2023/08/30 05:21:08;;;;;;;0.40;0.40;;;15.00;99.90;;;;;;4946746;29;20687;-82
2023/08/30 05:23:35;;;;;;;3.57;2.87;;;15.10;99.90;;;;;;4966800;28;20437;-84
2023/08/30 05:26:03;;;;;;;2.00;1.87;;;15.10;99.90;;;;;;4948973;29;20434;-85
2023/08/30 05:28:30;;;;;;;0.40;0.40;;;15.10;99.90;;;;;;4946032;28;20508;-82
2023/08/30 05:31:10;;;;;;;;;;;;;;;;;;;;;
2023/08/30 05:33:38;;;;;;;0.40;0.40;;;15.10;99.90;;;;;;4974337;28;20488;-84
2023/08/30 05:36:07;;;;;;;0.50;0.50;;;15.10;99.90;;;;;;4967431;29;20440;-85
2023/08/30 05:38:36;;;;;;;0.50;0.50;;;15.10;99.90;;;;;;4960839;28;20437;-87
2023/08/30 05:41:08;;;;;;;0.70;0.70;;;15.30;99.90;;;;;;4941046;29;20504;-84
2023/08/30 05:43:35;;;;;;;0.70;0.70;;;15.30;99.90;;;;;;4944873;28;20836;-84
2023/08/30 05:46:12;;;;;;;0.50;0.50;;;15.50;99.90;;;;;;4950446;29;20475;-83
2023/08/30 05:48:41;;;;;;;1.57;1.47;;;15.50;99.90;;;;;;4965028;28;20565;-85
2023/08/30 05:51:09;;;;;;;0.70;0.70;;;15.50;99.90;;;;;;4946536;29;20540;-85
2023/08/30 05:53:36;;;;;;;0.90;0.90;;;15.50;99.90;;;;;;4962814;28;20628;-84
2023/08/30 05:56:04;;;;;;;0.70;0.70;;;15.50;99.90;;;;;;4962569;28;20516;-86
2023/08/30 05:58:32;;;;;;;0.50;0.50;;;15.60;99.90;;;;;;4946833;28;20457;-84
2023/08/30 06:01:09;;;;;;;0.73;0.73;;;15.50;99.90;;;;;;4945915;28;20519;-86
2023/08/30 06:03:37;;;;;;;1.17;1.17;;;15.70;99.90;;;;;;4955522;28;20629;-87
2023/08/30 06:06:06;;;;;;;0.73;0.73;;;16.00;99.90;;;;;;4964221;28;20619;-86
2023/08/30 06:08:33;;;;;;;1.90;1.80;;;15.90;99.90;;;;;;4959318;28;20521;-87
2023/08/30 06:11:04;;;;;;;1.60;1.47;;;16.00;99.90;;;;;;4968795;28;20480;-85
2023/08/30 06:13:34;;;;;;;0.50;0.50;;;16.20;99.90;;;;;;4953705;29;20520;-86
2023/08/30 06:16:02;;;;;;;1.67;1.57;;;16.20;99.90;;;;;;4968734;28;20648;-86
2023/08/30 06:18:32;;;;;;;1.00;0.97;;;16.20;99.90;;;;;;4951773;29;20742;-85
2023/08/30 06:20:59;;;;;;;0.87;0.87;;;16.30;99.90;;;;;;4967514;28;20712;-90
2023/08/30 06:23:30;;;;;;;0.50;0.50;;;16.20;99.90;;;;;;4952395;29;20440;-87
2023/08/30 06:26:00;;;;;;;0.50;0.50;;;16.10;99.90;;;;;;4968776;28;20737;-82
2023/08/30 06:28:27;;;;;;;1.00;1.00;;;16.10;99.90;;;;;;4960187;28;20506;-87
2023/08/30 06:30:57;;;;;;;3.27;1.33;;;16.00;99.90;;;;;;4960479;28;20472;-86
2023/08/30 06:33:25;;;;;;;1.47;1.37;;;16.10;99.90;;;;;;4959062;28;20468;-86
2023/08/30 06:35:56;;;;;;;0.50;0.50;;;16.00;99.90;;;;;;4950564;28;20420;-87
2023/08/30 06:38:23;;;;;;;0.50;0.50;;;16.00;99.90;;;;;;4952023;29;20520;-84
2023/08/30 06:40:50;;;;;;;0.50;0.50;;;15.90;99.90;;;;;;4965717;28;20449;-84
2023/08/30 06:43:18;;;;;;;0.60;0.60;;;15.90;99.90;;;;;;4968344;29;20516;-85
2023/08/30 06:45:46;;;;;;;0.50;0.50;;;15.80;99.90;;;;;;4969912;28;20449;-86
2023/08/30 06:48:13;;;;;;;0.50;0.50;;;15.80;99.90;;;;;;4963940;29;20431;-81
2023/08/30 06:50:40;;;;;;;0.50;0.50;;;15.90;99.90;;;;;;4945689;29;20763;-84
2023/08/30 06:53:09;;;;;;;0.70;0.70;;;15.80;99.90;;;;;;4971490;28;20509;-85
2023/08/30 06:55:37;;;;;;;0.50;0.50;;;15.80;99.90;;;;;;4968618;28;20628;-83
2023/08/30 06:58:06;;;;;;;0.60;0.60;;;15.80;99.90;;;;;;4942819;29;20445;-84
2023/08/30 07:00:34;;;;;;;0.40;0.40;;;15.80;99.90;;;;;;4967059;28;20560;-85
2023/08/30 07:03:06;;;;;;;0.50;0.50;;;15.70;99.90;;;;;;4944760;29;20465;-80
2023/08/30 07:05:33;;;;;;;0.40;0.40;;;15.70;99.90;;;;;;4970250;28;20411;-83
2023/08/30 07:08:08;;;;;;;0.77;0.77;;;15.90;99.90;;;;;;4952159;29;20821;-87
2023/08/30 07:10:43;;;;;;;0.50;0.50;;;16.20;99.90;;;;;;4953468;28;20751;-85
2023/08/30 07:13:21;;;;;;;0.50;0.50;;;16.40;99.90;;;;;;4972098;28;20527;-86
2023/08/30 07:15:50;;;;;;;0.50;0.50;;;16.40;99.90;;;;;;4954583;29;20650;-88
2023/08/30 07:18:26;;;;;;;0.50;0.50;;;16.40;99.90;;;;;;4950315;29;20503;-86
2023/08/30 07:20:58;;;;;;;0.50;0.50;;;16.10;99.90;;;;;;4948512;29;20493;-85
2023/08/30 07:23:25;;;;;;;0.50;0.50;;;16.00;99.90;;;;;;4951576;29;20487;-87
2023/08/30 07:25:54;;;;;;;0.50;0.50;;;16.10;99.90;;;;;;4951930;29;20453;-87
2023/08/30 07:28:31;;;;;;;0.70;0.70;;;16.10;99.90;;;;;;4976704;28;20579;-85
2023/08/30 07:31:04;;;;;;;1.10;1.10;;;15.90;99.90;;;;;;4947841;28;20857;-86
2023/08/30 07:33:43;;;;;;;0.60;0.60;;;16.00;99.90;;;;;;4960487;28;20416;-87
2023/08/30 07:36:11;;;;;;;0.50;0.50;;;15.90;99.90;;;;;;4960326;28;20408;-87
2023/08/30 07:38:45;;;;;;;0.63;0.63;;;15.90;99.90;;;;;;4949216;29;20532;-87
2023/08/30 07:41:17;;;;;;;0.60;0.60;;;15.80;99.90;;;;;;4968989;28;20441;-86
2023/08/30 07:43:44;;;;;;;0.50;0.50;;;15.90;99.90;;;;;;4966661;28;20512;-84
2023/08/30 07:46:11;;;;;;;0.50;0.50;;;16.10;99.90;;;;;;4965846;28;20427;-86
2023/08/30 07:48:46;;;;;;;0.50;0.50;;;16.30;99.90;;;;;;4966175;28;20449;-85
2023/08/30 07:51:14;;;;;;;0.50;0.50;;;16.70;99.90;;;;;;4968391;28;20508;-88
2023/08/30 07:53:43;;;;;;;0.50;0.50;;;16.80;99.90;;;;;;4967234;28;20474;-85
2023/08/30 07:56:12;;;;;;;0.50;0.50;;;16.70;99.90;;;;;;4959002;28;20423;-83
2023/08/30 07:58:44;;;;;;;0.50;0.50;;;16.70;99.90;;;;;;4974325;28;20453;-87
2023/08/30 08:01:11;;;;;;;0.50;0.50;;;16.70;99.90;;;;;;4961298;28;20445;-83
2023/08/30 08:03:38;;;;;;;0.60;0.60;;;16.60;99.90;;;;;;4963165;28;20452;-84
2023/08/30 08:06:20;;;;;;;0.60;0.60;;;16.70;99.90;;;;;;4962455;28;20640;-86
2023/08/30 08:08:51;;;;;;;0.70;0.70;;;16.80;99.90;;;;;;4958515;28;20425;-86
2023/08/30 08:11:31;;;;;;;0.50;0.50;;;16.70;99.90;;;;;;4969456;28;20482;-87
2023/08/30 08:14:01;;;;;;;0.50;0.50;;;16.60;99.90;;;;;;4945769;29;20474;-87
2023/08/30 08:16:29;;;;;;;0.60;0.60;;;16.30;99.90;;;;;;4969308;28;20445;-85
2023/08/30 08:19:15;;;;;;;0.50;0.50;;;16.40;99.90;;;;;;4964307;28;20445;-89
2023/08/30 08:22:08;;;;;;;0.70;0.70;;;16.30;99.90;;;;;;4942111;29;20461;-89
2023/08/30 08:24:45;;;;;;;0.50;0.50;;;16.10;99.90;;;;;;4965325;28;20448;-88
2023/08/30 08:27:14;;;;;;;0.50;0.50;;;16.10;99.90;;;;;;4969342;28;20434;-86
2023/08/30 08:29:51;;;;;;;0.83;0.83;;;16.30;99.90;;;;;;4968188;28;20437;-85
2023/08/30 08:32:24;;;;;;;0.50;0.50;;;16.40;99.90;;;;;;4974016;28;20447;-86
2023/08/30 08:35:34;;;;;;;0.50;0.50;;;16.60;99.90;;;;;;4958059;28;20475;-88
2023/08/30 08:38:12;;;;;;;0.50;0.50;;;17.00;99.90;;;;;;4950831;28;20459;-85
2023/08/30 08:40:43;;;;;;;0.60;0.60;;;16.80;99.90;;;;;;4966726;28;20451;-84
2023/08/30 08:43:28;;;;;;;0.60;0.60;;;17.00;99.90;;;;;;4968137;28;20509;-91
2023/08/30 08:46:00;;;;;;;0.50;0.50;;;16.80;99.90;;;;;;4971340;28;20432;-90
2023/08/30 08:48:46;;;;;;;;;;;;;;;;;;;;;
2023/08/30 08:56:57;;;;;;;0.50;0.50;;;17.00;99.90;;;;;;4953462;28;20460;-89
2023/08/30 08:59:38;;;;;;;0.50;0.50;;;17.10;99.90;;;;;;4936887;29;20554;-91
2023/08/30 09:02:09;;;;;;;0.50;0.50;;;16.80;99.90;;;;;;4950611;29;20448;-87
2023/08/30 09:04:50;;;;;;;0.53;0.53;;;16.80;99.90;;;;;;5198200;23;20501;-88
2023/08/30 09:07:39;;;;;;;;;;;;;;;;;;;;;
2023/08/30 09:10:10;;;;;;;0.50;0.50;;;16.50;99.90;;;;;;4950222;29;20451;-85
2023/08/30 09:12:46;;;;;;;0.50;0.50;;;16.50;99.90;;;;;;4931241;29;20801;-87
2023/08/30 09:15:37;;;;;;;0.50;0.50;;;16.50;99.90;;;;;;4928891;29;20438;-88
2023/08/30 09:18:27;;;;;;;0.50;0.50;;;16.30;99.90;;;;;;4935095;29;20454;-86
2023/08/30 09:21:13;;;;;;;0.60;0.60;;;16.50;99.90;;;;;;4948292;29;20446;-91
2023/08/30 09:24:08;;;;;;;0.50;0.50;;;16.20;99.90;;;;;;4907753;29;20442;-88
2023/08/30 09:26:51;;;;;;;0.47;0.47;;;16.10;99.90;;;;;;4926686;29;20455;-85
2023/08/30 09:29:36;;;;;;;0.90;0.90;;;16.10;99.90;;;;;;4927340;29;20669;-92
2023/08/30 09:32:23;;;;;;;0.50;0.50;;;16.10;99.90;;;;;;4932660;29;20474;-87
2023/08/30 09:34:53;;;;;;;0.50;0.50;;;16.20;99.90;;;;;;4945285;29;20442;-87
2023/08/30 09:37:23;;;;;;;0.50;0.50;;;16.30;99.90;;;;;;4926758;29;20462;-89
2023/08/30 09:39:53;;;;;;;0.50;0.50;;;16.50;99.90;;;;;;4944021;29;20727;-87
2023/08/30 09:42:25;;;;;;;0.50;0.50;;;16.70;99.90;;;;;;4939234;29;20438;-88
2023/08/30 09:44:57;;;;;;;0.50;0.50;;;16.90;99.90;;;;;;4923660;29;20450;-84
2023/08/30 09:47:26;;;;;;;0.50;0.50;;;16.80;99.90;;;;;;4948276;29;20442;-90
2023/08/30 09:50:00;;;;;;;0.50;0.50;;;16.90;99.90;;;;;;4927419;29;20454;-85
2023/08/30 09:52:35;;;;;;;0.50;0.50;;;17.00;99.90;;;;;;4939642;29;20473;-91
2023/08/30 09:55:09;;;;;;;0.50;0.50;;;17.20;99.90;;;;;;4939142;29;20731;-87
2023/08/30 09:57:44;;;;;;;0.60;0.60;;;17.40;99.90;;;;;;4922586;29;20481;-89
2023/08/30 10:00:18;;;;;;;0.60;0.60;;;17.00;99.90;;;;;;4949603;29;20485;-89
2023/08/30 10:02:45;;;;;;;0.50;0.50;;;16.90;99.90;;;;;;4931502;29;20526;-87
2023/08/30 10:06:15;;;;;;;0.50;0.50;;;17.00;99.90;;;;;;4944568;29;20426;-90
2023/08/30 10:08:53;;;;;;;0.50;0.50;;;16.50;99.90;;;;;;4930488;29;20561;-88
2023/08/30 10:11:31;;;;;;;0.50;0.50;;;16.60;99.90;;;;;;4920250;29;20546;-86
2023/08/30 10:14:00;;;;;;;0.63;0.63;;;16.70;99.90;;;;;;4942007;29;20433;-87
2023/08/30 10:16:47;;;;;;;1.07;1.07;;;16.50;99.90;;;;;;4946593;29;20441;-88
2023/08/30 10:19:44;;;;;;;0.50;0.50;;;16.60;99.90;;;;;;4945827;29;20443;-90
2023/08/30 10:22:24;;;;;;;0.50;0.50;;;16.60;99.90;;;;;;4942477;29;20442;-89
2023/08/30 10:25:04;;;;;;;0.50;0.50;;;16.70;99.90;;;;;;4916930;29;20828;-88
2023/08/30 10:27:47;;;;;;;0.50;0.50;;;16.60;99.90;;;;;;4920636;29;20496;-86
2023/08/30 10:30:20;;;;;;;0.50;0.50;;;16.80;99.90;;;;;;4929779;29;20439;-89
2023/08/30 10:32:59;;;;;;;0.50;0.50;;;16.90;99.90;;;;;;4927746;29;20502;-88
2023/08/30 10:35:26;;;;;;;0.50;0.50;;;17.10;99.90;;;;;;4926647;29;20443;-83
2023/08/30 10:37:59;;;;;;;0.60;0.60;;;17.60;99.90;;;;;;4943954;29;20463;-87
2023/08/30 10:40:52;;;;;;;0.60;0.60;;;17.60;99.90;;;;;;4934134;29;20409;-87
2023/08/30 10:43:34;;;;;;;0.57;0.57;;;17.40;99.90;;;;;;4943074;29;20837;-88
2023/08/30 10:46:02;;;;;;;0.60;0.60;;;17.20;99.90;;;;;;4918293;29;20417;-86
2023/08/30 10:48:55;;;;;;;;;;;;;;;;;;;;;
2023/08/30 10:51:38;;;;;;;0.60;0.60;;;16.90;99.90;;;;;;4937841;29;20556;-84
2023/08/30 10:54:36;;;;;;;0.50;0.50;;;16.60;99.90;;;;;;4939658;29;20475;-86
2023/08/30 10:57:15;;;;;;;0.50;0.50;;;16.80;99.90;;;;;;4947751;29;20446;-87
2023/08/30 11:00:08;;;;;;;0.50;0.50;;;16.70;99.90;;;;;;4931489;29;20420;-86
2023/08/30 11:03:14;;;;;;;0.60;0.60;;;16.50;99.90;;;;;;4927366;29;20456;-89
2023/08/30 11:05:49;;;;;;;2.77;2.57;;;16.60;99.90;;;;;;4943799;29;20409;-87
2023/08/30 11:08:32;;;;;;;;;;;;;;;;;;;;;
2023/08/30 11:11:24;;;;;;;0.70;0.70;;;17.10;99.90;;;;;;4960720;29;20680;-87
2023/08/30 11:13:54;;;;;;;0.60;0.60;;;17.50;99.90;;;;;;5057856;23;20468;-86
2023/08/30 11:16:27;;;;;;;0.60;0.60;;;18.00;99.90;;;;;;5190927;23;20564;-86
2023/08/30 11:18:56;;;;;;;0.60;0.60;;;18.70;99.90;;;;;;4960330;28;20450;-88
2023/08/30 11:21:45;;;;;;;3.17;2.90;;;19.50;99.90;;;;;;4972471;29;20448;-88
2023/08/30 11:24:13;;;;;;;0.60;0.60;;;20.20;99.90;;;;;;5590097;23;20418;-86
2023/08/30 11:29:29;;;;;;;1.53;1.43;;;20.20;99.90;;;;;;3132648;26;20439;-87
2023/08/30 11:37:13;;;;;;;1.47;1.37;;;19.40;99.90;;;;;;4947149;28;20466;-84
2023/08/30 11:39:44;;;;;;;1.40;1.40;;;19.30;99.90;;;;;;4955278;29;20442;-87
2023/08/30 11:42:23;;;;;;;0.80;0.80;;;19.00;99.90;;;;;;4955070;28;20686;-90
2023/08/30 11:44:51;;;;;;;0.90;0.90;;;18.60;99.90;;;;;;4951233;28;20503;-85
2023/08/30 11:47:25;;;;;;;1.07;1.00;;;18.50;99.90;;;;;;4952623;28;20458;-84
2023/08/30 11:49:59;;;;;;;0.60;0.60;;;18.50;99.90;;;;;;4951997;29;20713;-86
2023/08/30 11:52:31;;;;;;;0.70;0.70;;;18.40;99.90;;;;;;4957808;28;20595;-88
2023/08/30 11:54:58;;;;;;;1.10;1.00;;;18.50;99.90;;;;;;4941777;29;20431;-89
2023/08/30 11:57:27;;;;;;;0.83;0.83;;;18.60;99.90;;;;;;5104448;23;20536;-83
2023/08/30 12:00:11;;;;;;;0.80;0.80;;;18.60;99.90;;;;;;4956497;28;20445;-86
2023/08/30 12:02:49;;;;;;;1.10;1.10;;;18.80;99.90;;;;;;5562369;23;20525;-83
2023/08/30 12:05:25;;;;;;;1.13;1.10;;;19.00;99.90;;;;;;5330279;23;20470;-88
2023/08/30 12:07:53;;;;;;;0.70;0.70;;;19.20;99.90;;;;;;5400140;23;20496;-86
2023/08/30 12:12:52;;;;;;;0.80;0.80;;;19.00;99.90;;;;;;5638012;23;21159;-86
2023/08/30 12:18:12;;;;;;;0.80;0.80;;;18.60;99.90;;;;;;5397031;23;20542;-82
2023/08/30 12:20:51;;;;;;;0.73;0.73;;;18.40;99.90;;;;;;4970989;28;20412;-89
2023/08/30 12:23:24;;;;;;;1.17;1.17;;;18.30;99.90;;;;;;5083843;23;20540;-87
2023/08/30 12:28:29;;;;;;;1.37;1.37;;;17.80;99.90;;;;;;4947221;29;20497;-82
2023/08/30 12:36:58;;;;;;;1.30;1.30;;;17.90;99.90;;;;;;5418999;23;20491;-91
2023/08/30 12:39:30;;;;;;;1.43;1.33;;;17.90;99.90;;;;;;5751530;23;20489;-88
2023/08/30 12:42:04;;;;;;;1.10;1.10;;;18.30;99.90;;;;;;5445280;23;20497;-90
2023/08/30 12:47:28;;;;;;;1.23;1.13;;;18.80;99.90;;;;;;5033153;23;20544;-86
2023/08/30 12:49:55;;;;;;;0.60;0.60;;;18.80;99.90;;;;;;5088784;23;20447;-87
2023/08/30 12:52:22;;;;;;;0.60;0.60;;;18.60;99.90;;;;;;4977589;28;20432;-83
2023/08/30 12:54:51;;;;;;;1.93;1.83;;;18.20;99.90;;;;;;4949064;29;20797;-89
2023/08/30 12:57:24;;;;;;;0.60;0.60;;;18.10;99.90;;;;;;4952209;29;20688;-83
2023/08/30 12:59:51;;;;;;;0.73;0.73;;;18.00;99.90;;;;;;4950258;29;20404;-85
2023/08/30 13:02:18;;;;;;;0.60;0.60;;;17.90;99.90;;;;;;4967395;28;20452;-89
2023/08/30 13:05:03;;;;;;;0.60;0.60;;;17.90;99.90;;;;;;4952256;29;20504;-89
2023/08/30 13:08:56;;;;;;;0.60;0.60;;;18.00;99.90;;;;;;4945434;29;20434;-84
2023/08/30 13:11:04;;;;;;;1.20;1.20;;;18.00;99.90;;;;;;4973069;28;20680;-86
2023/08/30 13:13:39;;;;;;;0.60;0.60;;;18.10;99.90;;;;;;4942122;28;20582;-85
2023/08/30 13:16:12;;;;;;;0.60;0.60;;;18.30;99.90;;;;;;4950807;29;20449;-91
2023/08/30 13:18:40;;;;;;;0.60;0.60;;;18.70;99.90;;;;;;5128680;23;20599;-87
2023/08/30 13:21:09;;;;;;;1.33;1.33;;;19.30;99.90;;;;;;4967815;28;20496;-88
2023/08/30 13:24:04;;;;;;;0.60;0.60;;;19.40;99.90;;;;;;4962294;28;20415;-89
2023/08/30 13:26:37;;;;;;;0.70;0.70;;;19.40;99.90;;;;;;5065203;23;20474;-92
2023/08/30 13:31:43;;;;;;;3.07;2.97;;;19.40;99.90;;;;;;5666035;23;20459;-89
2023/08/30 13:37:05;;;;;;;0.60;0.60;;;18.80;99.90;;;;;;5152376;23;20463;-84
2023/08/30 13:39:41;;;;;;;0.50;0.50;;;18.60;99.90;;;;;;4972078;28;20461;-85
2023/08/30 13:47:44;;;;;;;0.60;0.60;;;18.50;99.90;;;;;;5004367;23;20510;-88
2023/08/30 13:58:41;;;;;;;0.60;0.60;;;19.20;99.90;;;;;;5519560;23;21261;-92
2023/08/30 14:01:08;;;;;;;0.60;0.60;;;19.40;99.90;;;;;;5015707;23;20497;-82
2023/08/30 14:25:21;;;;;;;0.70;0.70;;;18.10;99.90;;;;;;5588546;23;20492;-87
2023/08/30 14:33:21;;;;;;;0.60;0.60;;;18.30;99.90;;;;;;5301167;23;20888;-86
2023/08/30 14:36:03;;;;;;;0.60;0.60;;;18.40;99.90;;;;;;5212769;23;20780;-88